sensor_id;sensor_type;location;lat;lon;timestamp;P1;durP1;ratioP1;P2;durP2;ratioP2
26157;SDS011;67284;44.782;10.282;2023-12-04T00:03:05;21.33;;;12.40;;
26157;SDS011;67284;44.782;10.282;2023-12-04T00:07:57;22.77;;;12.10;;
26157;SDS011;67284;44.782;10.282;2023-12-04T00:12:49;18.08;;;11.32;;
26157;SDS011;67284;44.782;10.282;2023-12-04T00:17:41;22.98;;;11.90;;
26157;SDS011;67284;44.782;10.282;2023-12-04T00:22:33;21.23;;;11.88;;
26157;SDS011;67284;44.782;10.282;2023-12-04T00:27:25;17.08;;;9.85;;
26157;SDS011;67284;44.782;10.282;2023-12-04T00:32:18;20.95;;;10.85;;
26157;SDS011;67284;44.782;10.282;2023-12-04T00:37:11;18.60;;;11.13;;
26157;SDS011;67284;44.782;10.282;2023-12-04T00:42:03;26.40;;;12.02;;
26157;SDS011;67284;44.782;10.282;2023-12-04T00:46:55;23.52;;;12.45;;
26157;SDS011;67284;44.782;10.282;2023-12-04T00:51:47;22.40;;;13.00;;
26157;SDS011;67284;44.782;10.282;2023-12-04T00:56:39;19.63;;;11.32;;
26157;SDS011;67284;44.782;10.282;2023-12-04T01:01:31;23.35;;;11.00;;
26157;SDS011;67284;44.782;10.282;2023-12-04T01:06:23;19.67;;;11.98;;
26157;SDS011;67284;44.782;10.282;2023-12-04T01:11:16;19.45;;;12.20;;
26157;SDS011;67284;44.782;10.282;2023-12-04T01:16:08;21.88;;;12.02;;
26157;SDS011;67284;44.782;10.282;2023-12-04T01:21:01;21.08;;;11.30;;
26157;SDS011;67284;44.782;10.282;2023-12-04T01:25:53;17.63;;;11.23;;
26157;SDS011;67284;44.782;10.282;2023-12-04T01:30:45;20.58;;;11.48;;
26157;SDS011;67284;44.782;10.282;2023-12-04T01:35:37;14.68;;;9.98;;
26157;SDS011;67284;44.782;10.282;2023-12-04T01:40:29;17.80;;;10.65;;
26157;SDS011;67284;44.782;10.282;2023-12-04T01:45:21;17.52;;;10.98;;
26157;SDS011;67284;44.782;10.282;2023-12-04T01:50:13;17.60;;;10.88;;
26157;SDS011;67284;44.782;10.282;2023-12-04T01:55:07;15.65;;;9.75;;
26157;SDS011;67284;44.782;10.282;2023-12-04T02:00:01;14.80;;;10.13;;
26157;SDS011;67284;44.782;10.282;2023-12-04T02:05:01;22.30;;;11.15;;
26157;SDS011;67284;44.782;10.282;2023-12-04T02:09:54;16.17;;;9.73;;
26157;SDS011;67284;44.782;10.282;2023-12-04T02:14:46;15.77;;;10.32;;
26157;SDS011;67284;44.782;10.282;2023-12-04T02:19:38;15.65;;;9.43;;
26157;SDS011;67284;44.782;10.282;2023-12-04T02:24:29;15.80;;;10.10;;
26157;SDS011;67284;44.782;10.282;2023-12-04T02:29:29;19.50;;;10.57;;
26157;SDS011;67284;44.782;10.282;2023-12-04T02:34:24;20.40;;;10.18;;
26157;SDS011;67284;44.782;10.282;2023-12-04T02:39:17;14.20;;;9.20;;
26157;SDS011;67284;44.782;10.282;2023-12-04T02:44:10;20.27;;;10.77;;
26157;SDS011;67284;44.782;10.282;2023-12-04T02:49:02;18.25;;;10.07;;
26157;SDS011;67284;44.782;10.282;2023-12-04T02:53:54;16.98;;;9.07;;
26157;SDS011;67284;44.782;10.282;2023-12-04T02:58:45;12.18;;;8.93;;
26157;SDS011;67284;44.782;10.282;2023-12-04T03:03:37;19.83;;;10.75;;
26157;SDS011;67284;44.782;10.282;2023-12-04T03:08:29;15.82;;;11.52;;
26157;SDS011;67284;44.782;10.282;2023-12-04T03:13:21;26.63;;;13.55;;
26157;SDS011;67284;44.782;10.282;2023-12-04T03:18:13;18.48;;;11.05;;
26157;SDS011;67284;44.782;10.282;2023-12-04T03:23:05;18.58;;;10.98;;
26157;SDS011;67284;44.782;10.282;2023-12-04T03:27:57;23.02;;;10.52;;
26157;SDS011;67284;44.782;10.282;2023-12-04T03:32:49;15.52;;;9.80;;
26157;SDS011;67284;44.782;10.282;2023-12-04T03:37:41;17.95;;;9.43;;
26157;SDS011;67284;44.782;10.282;2023-12-04T03:42:32;13.27;;;9.00;;
26157;SDS011;67284;44.782;10.282;2023-12-04T03:47:25;18.75;;;10.32;;
26157;SDS011;67284;44.782;10.282;2023-12-04T03:52:18;14.45;;;9.35;;
26157;SDS011;67284;44.782;10.282;2023-12-04T03:57:09;15.82;;;10.02;;
26157;SDS011;67284;44.782;10.282;2023-12-04T04:02:02;19.38;;;10.07;;
26157;SDS011;67284;44.782;10.282;2023-12-04T04:06:54;14.52;;;9.85;;
26157;SDS011;67284;44.782;10.282;2023-12-04T04:11:46;16.40;;;9.23;;
26157;SDS011;67284;44.782;10.282;2023-12-04T04:16:38;16.70;;;10.95;;
26157;SDS011;67284;44.782;10.282;2023-12-04T04:21:31;17.77;;;11.25;;
26157;SDS011;67284;44.782;10.282;2023-12-04T04:26:23;15.02;;;9.90;;
26157;SDS011;67284;44.782;10.282;2023-12-04T04:31:15;16.88;;;9.02;;
26157;SDS011;67284;44.782;10.282;2023-12-04T04:36:08;16.30;;;9.63;;
26157;SDS011;67284;44.782;10.282;2023-12-04T04:41:01;16.00;;;10.18;;
26157;SDS011;67284;44.782;10.282;2023-12-04T04:45:53;16.38;;;8.75;;
26157;SDS011;67284;44.782;10.282;2023-12-04T04:50:45;15.63;;;9.57;;
26157;SDS011;67284;44.782;10.282;2023-12-04T04:55:37;15.65;;;10.32;;
26157;SDS011;67284;44.782;10.282;2023-12-04T05:00:39;14.48;;;9.43;;
26157;SDS011;67284;44.782;10.282;2023-12-04T05:05:31;16.13;;;9.85;;
26157;SDS011;67284;44.782;10.282;2023-12-04T05:10:23;17.85;;;10.07;;
26157;SDS011;67284;44.782;10.282;2023-12-04T05:15:15;17.92;;;10.75;;
26157;SDS011;67284;44.782;10.282;2023-12-04T05:20:07;15.93;;;10.88;;
26157;SDS011;67284;44.782;10.282;2023-12-04T05:25:00;16.25;;;9.98;;
26157;SDS011;67284;44.782;10.282;2023-12-04T05:29:52;15.88;;;10.27;;
26157;SDS011;67284;44.782;10.282;2023-12-04T05:34:44;13.82;;;10.10;;
26157;SDS011;67284;44.782;10.282;2023-12-04T05:39:36;15.20;;;10.02;;
26157;SDS011;67284;44.782;10.282;2023-12-04T05:44:28;16.70;;;10.68;;
26157;SDS011;67284;44.782;10.282;2023-12-04T05:49:20;14.45;;;10.27;;
26157;SDS011;67284;44.782;10.282;2023-12-04T05:54:13;21.73;;;10.13;;
26157;SDS011;67284;44.782;10.282;2023-12-04T05:59:05;16.55;;;10.95;;
26157;SDS011;67284;44.782;10.282;2023-12-04T06:03:57;19.33;;;12.90;;
26157;SDS011;67284;44.782;10.282;2023-12-04T06:08:49;19.27;;;10.77;;
26157;SDS011;67284;44.782;10.282;2023-12-04T06:13:41;16.92;;;9.82;;
26157;SDS011;67284;44.782;10.282;2023-12-04T06:18:32;19.60;;;12.52;;
26157;SDS011;67284;44.782;10.282;2023-12-04T06:23:24;21.77;;;12.45;;
26157;SDS011;67284;44.782;10.282;2023-12-04T06:28:17;18.45;;;12.48;;
26157;SDS011;67284;44.782;10.282;2023-12-04T06:33:09;19.40;;;11.40;;
26157;SDS011;67284;44.782;10.282;2023-12-04T06:38:05;17.15;;;11.30;;
26157;SDS011;67284;44.782;10.282;2023-12-04T06:42:58;20.83;;;11.75;;
26157;SDS011;67284;44.782;10.282;2023-12-04T06:47:50;23.98;;;12.32;;
26157;SDS011;67284;44.782;10.282;2023-12-04T06:52:43;22.13;;;12.55;;
26157;SDS011;67284;44.782;10.282;2023-12-04T06:57:35;25.48;;;13.15;;
26157;SDS011;67284;44.782;10.282;2023-12-04T07:02:27;20.33;;;12.93;;
26157;SDS011;67284;44.782;10.282;2023-12-04T07:07:19;19.42;;;12.80;;
26157;SDS011;67284;44.782;10.282;2023-12-04T07:12:10;25.35;;;14.18;;
26157;SDS011;67284;44.782;10.282;2023-12-04T07:17:02;29.15;;;12.82;;
26157;SDS011;67284;44.782;10.282;2023-12-04T07:21:54;23.00;;;11.88;;
26157;SDS011;67284;44.782;10.282;2023-12-04T07:26:46;28.35;;;14.63;;
26157;SDS011;67284;44.782;10.282;2023-12-04T07:31:38;20.20;;;13.60;;
26157;SDS011;67284;44.782;10.282;2023-12-04T07:36:30;20.20;;;12.18;;
26157;SDS011;67284;44.782;10.282;2023-12-04T07:41:22;20.65;;;12.60;;
26157;SDS011;67284;44.782;10.282;2023-12-04T07:46:14;20.98;;;14.15;;
26157;SDS011;67284;44.782;10.282;2023-12-04T07:51:06;28.13;;;14.23;;
26157;SDS011;67284;44.782;10.282;2023-12-04T07:56:02;26.95;;;13.02;;
26157;SDS011;67284;44.782;10.282;2023-12-04T08:00:54;24.08;;;14.75;;
26157;SDS011;67284;44.782;10.282;2023-12-04T08:05:47;22.88;;;13.18;;
26157;SDS011;67284;44.782;10.282;2023-12-04T08:10:39;25.30;;;13.25;;
26157;SDS011;67284;44.782;10.282;2023-12-04T08:15:34;21.42;;;12.68;;
26157;SDS011;67284;44.782;10.282;2023-12-04T08:20:26;22.98;;;14.45;;
26157;SDS011;67284;44.782;10.282;2023-12-04T08:25:30;20.65;;;13.07;;
26157;SDS011;67284;44.782;10.282;2023-12-04T08:30:21;20.92;;;12.82;;
26157;SDS011;67284;44.782;10.282;2023-12-04T08:35:13;23.45;;;13.70;;
26157;SDS011;67284;44.782;10.282;2023-12-04T08:40:06;23.90;;;14.10;;
26157;SDS011;67284;44.782;10.282;2023-12-04T08:45:00;19.85;;;13.98;;
26157;SDS011;67284;44.782;10.282;2023-12-04T08:49:52;23.70;;;15.38;;
26157;SDS011;67284;44.782;10.282;2023-12-04T08:54:44;23.77;;;14.07;;
26157;SDS011;67284;44.782;10.282;2023-12-04T08:59:36;21.05;;;14.93;;
26157;SDS011;67284;44.782;10.282;2023-12-04T09:04:28;26.38;;;15.13;;
26157;SDS011;67284;44.782;10.282;2023-12-04T09:09:21;21.92;;;14.27;;
26157;SDS011;67284;44.782;10.282;2023-12-04T09:14:13;25.42;;;13.60;;
26157;SDS011;67284;44.782;10.282;2023-12-04T09:19:06;22.75;;;14.00;;
26157;SDS011;67284;44.782;10.282;2023-12-04T09:23:58;22.77;;;13.35;;
26157;SDS011;67284;44.782;10.282;2023-12-04T09:28:50;20.42;;;13.65;;
26157;SDS011;67284;44.782;10.282;2023-12-04T09:33:43;25.77;;;14.45;;
26157;SDS011;67284;44.782;10.282;2023-12-04T09:38:35;23.85;;;13.05;;
26157;SDS011;67284;44.782;10.282;2023-12-04T09:43:31;27.13;;;14.43;;
26157;SDS011;67284;44.782;10.282;2023-12-04T09:48:24;18.52;;;12.52;;
26157;SDS011;67284;44.782;10.282;2023-12-04T09:53:17;27.05;;;15.60;;
26157;SDS011;67284;44.782;10.282;2023-12-04T09:58:10;21.35;;;13.68;;
26157;SDS011;67284;44.782;10.282;2023-12-04T10:03:05;24.13;;;15.13;;
26157;SDS011;67284;44.782;10.282;2023-12-04T10:07:58;23.83;;;14.82;;
26157;SDS011;67284;44.782;10.282;2023-12-04T10:12:50;27.10;;;15.73;;
26157;SDS011;67284;44.782;10.282;2023-12-04T10:17:42;26.70;;;16.25;;
26157;SDS011;67284;44.782;10.282;2023-12-04T10:22:35;26.23;;;17.55;;
26157;SDS011;67284;44.782;10.282;2023-12-04T10:27:27;26.83;;;16.05;;
26157;SDS011;67284;44.782;10.282;2023-12-04T10:32:19;23.88;;;15.40;;
26157;SDS011;67284;44.782;10.282;2023-12-04T10:37:14;26.63;;;16.50;;
26157;SDS011;67284;44.782;10.282;2023-12-04T10:42:06;33.97;;;17.30;;
26157;SDS011;67284;44.782;10.282;2023-12-04T10:46:59;28.60;;;16.42;;
26157;SDS011;67284;44.782;10.282;2023-12-04T10:51:53;30.80;;;16.92;;
26157;SDS011;67284;44.782;10.282;2023-12-04T10:56:47;26.20;;;14.18;;
26157;SDS011;67284;44.782;10.282;2023-12-04T11:01:44;23.67;;;15.32;;
26157;SDS011;67284;44.782;10.282;2023-12-04T11:06:37;31.95;;;16.50;;
26157;SDS011;67284;44.782;10.282;2023-12-04T11:11:33;32.28;;;15.50;;
26157;SDS011;67284;44.782;10.282;2023-12-04T11:21:39;40.22;;;18.30;;
26157;SDS011;67284;44.782;10.282;2023-12-04T11:26:31;55.45;;;34.15;;
26157;SDS011;67284;44.782;10.282;2023-12-04T11:31:23;39.70;;;23.95;;
26157;SDS011;67284;44.782;10.282;2023-12-04T11:36:16;30.83;;;20.30;;
26157;SDS011;67284;44.782;10.282;2023-12-04T11:41:15;32.13;;;18.52;;
26157;SDS011;67284;44.782;10.282;2023-12-04T11:46:19;29.05;;;18.00;;
26157;SDS011;67284;44.782;10.282;2023-12-04T11:56:39;29.55;;;17.67;;
26157;SDS011;67284;44.782;10.282;2023-12-04T12:01:35;28.40;;;19.08;;
26157;SDS011;67284;44.782;10.282;2023-12-04T12:06:28;30.40;;;17.67;;
26157;SDS011;67284;44.782;10.282;2023-12-04T12:11:20;26.83;;;14.90;;
26157;SDS011;67284;44.782;10.282;2023-12-04T12:16:14;28.63;;;16.98;;
26157;SDS011;67284;44.782;10.282;2023-12-04T12:21:07;20.23;;;14.98;;
26157;SDS011;67284;44.782;10.282;2023-12-04T12:25:59;25.45;;;14.82;;
26157;SDS011;67284;44.782;10.282;2023-12-04T12:30:55;24.20;;;14.93;;
26157;SDS011;67284;44.782;10.282;2023-12-04T12:35:47;22.85;;;15.85;;
26157;SDS011;67284;44.782;10.282;2023-12-04T12:40:50;22.70;;;13.57;;
26157;SDS011;67284;44.782;10.282;2023-12-04T12:45:43;21.85;;;13.35;;
26157;SDS011;67284;44.782;10.282;2023-12-04T12:50:36;22.15;;;13.00;;
26157;SDS011;67284;44.782;10.282;2023-12-04T12:55:28;23.58;;;13.05;;
26157;SDS011;67284;44.782;10.282;2023-12-04T13:00:20;24.60;;;13.45;;
26157;SDS011;67284;44.782;10.282;2023-12-04T13:05:11;22.45;;;13.30;;
26157;SDS011;67284;44.782;10.282;2023-12-04T13:10:03;23.83;;;13.75;;
26157;SDS011;67284;44.782;10.282;2023-12-04T13:14:56;107.68;;;36.20;;
26157;SDS011;67284;44.782;10.282;2023-12-04T13:19:48;93.18;;;33.33;;
26157;SDS011;67284;44.782;10.282;2023-12-04T13:24:40;54.95;;;24.35;;
26157;SDS011;67284;44.782;10.282;2023-12-04T13:29:32;42.67;;;21.17;;
26157;SDS011;67284;44.782;10.282;2023-12-04T13:34:24;37.92;;;22.30;;
26157;SDS011;67284;44.782;10.282;2023-12-04T13:39:16;31.85;;;19.85;;
26157;SDS011;67284;44.782;10.282;2023-12-04T13:44:08;29.63;;;19.40;;
26157;SDS011;67284;44.782;10.282;2023-12-04T13:49:00;36.88;;;22.55;;
26157;SDS011;67284;44.782;10.282;2023-12-04T13:53:52;36.72;;;23.83;;
26157;SDS011;67284;44.782;10.282;2023-12-04T13:58:52;34.15;;;21.27;;
26157;SDS011;67284;44.782;10.282;2023-12-04T14:08:43;27.05;;;18.73;;
26157;SDS011;67284;44.782;10.282;2023-12-04T14:13:35;31.73;;;19.15;;
26157;SDS011;67284;44.782;10.282;2023-12-04T14:18:27;26.75;;;17.25;;
26157;SDS011;67284;44.782;10.282;2023-12-04T14:23:22;26.85;;;17.40;;
26157;SDS011;67284;44.782;10.282;2023-12-04T14:28:14;24.10;;;15.77;;
26157;SDS011;67284;44.782;10.282;2023-12-04T14:33:10;28.63;;;16.67;;
26157;SDS011;67284;44.782;10.282;2023-12-04T14:38:03;30.95;;;18.13;;
26157;SDS011;67284;44.782;10.282;2023-12-04T14:42:56;26.30;;;16.58;;
26157;SDS011;67284;44.782;10.282;2023-12-04T14:47:48;25.38;;;16.38;;
26157;SDS011;67284;44.782;10.282;2023-12-04T14:52:43;31.13;;;19.30;;
26157;SDS011;67284;44.782;10.282;2023-12-04T14:57:41;28.67;;;17.65;;
26157;SDS011;67284;44.782;10.282;2023-12-04T15:02:33;32.55;;;19.48;;
26157;SDS011;67284;44.782;10.282;2023-12-04T15:07:44;30.38;;;18.25;;
26157;SDS011;67284;44.782;10.282;2023-12-04T15:12:56;31.20;;;18.77;;
26157;SDS011;67284;44.782;10.282;2023-12-04T15:18:23;40.22;;;21.15;;
26157;SDS011;67284;44.782;10.282;2023-12-04T15:23:34;30.98;;;18.80;;
26157;SDS011;67284;44.782;10.282;2023-12-04T15:28:27;33.95;;;21.38;;
26157;SDS011;67284;44.782;10.282;2023-12-04T15:33:19;55.35;;;31.92;;
26157;SDS011;67284;44.782;10.282;2023-12-04T15:38:12;44.35;;;26.80;;
26157;SDS011;67284;44.782;10.282;2023-12-04T15:43:04;37.58;;;23.80;;
26157;SDS011;67284;44.782;10.282;2023-12-04T15:47:56;31.00;;;19.38;;
26157;SDS011;67284;44.782;10.282;2023-12-04T15:52:48;24.92;;;16.42;;
26157;SDS011;67284;44.782;10.282;2023-12-04T15:57:40;28.77;;;17.52;;
26157;SDS011;67284;44.782;10.282;2023-12-04T16:02:33;28.08;;;16.48;;
26157;SDS011;67284;44.782;10.282;2023-12-04T16:07:25;28.23;;;16.60;;
26157;SDS011;67284;44.782;10.282;2023-12-04T16:12:16;27.40;;;16.95;;
26157;SDS011;67284;44.782;10.282;2023-12-04T16:17:08;32.95;;;20.10;;
26157;SDS011;67284;44.782;10.282;2023-12-04T16:22:00;33.95;;;22.05;;
26157;SDS011;67284;44.782;10.282;2023-12-04T16:26:52;36.60;;;23.38;;
26157;SDS011;67284;44.782;10.282;2023-12-04T16:31:46;39.10;;;23.73;;
26157;SDS011;67284;44.782;10.282;2023-12-04T16:36:38;35.03;;;21.23;;
26157;SDS011;67284;44.782;10.282;2023-12-04T16:41:30;31.65;;;20.23;;
26157;SDS011;67284;44.782;10.282;2023-12-04T16:46:22;35.28;;;21.05;;
26157;SDS011;67284;44.782;10.282;2023-12-04T16:51:14;60.60;;;30.75;;
26157;SDS011;67284;44.782;10.282;2023-12-04T16:56:13;39.83;;;23.80;;
26157;SDS011;67284;44.782;10.282;2023-12-04T17:01:05;38.70;;;23.58;;
26157;SDS011;67284;44.782;10.282;2023-12-04T17:05:57;31.50;;;19.50;;
26157;SDS011;67284;44.782;10.282;2023-12-04T17:10:53;41.97;;;23.75;;
26157;SDS011;67284;44.782;10.282;2023-12-04T17:15:45;43.35;;;23.17;;
26157;SDS011;67284;44.782;10.282;2023-12-04T17:20:37;30.63;;;19.20;;
26157;SDS011;67284;44.782;10.282;2023-12-04T17:25:29;28.52;;;17.45;;
26157;SDS011;67284;44.782;10.282;2023-12-04T17:30:22;30.40;;;19.20;;
26157;SDS011;67284;44.782;10.282;2023-12-04T17:35:14;58.85;;;29.52;;
26157;SDS011;67284;44.782;10.282;2023-12-04T17:40:06;38.05;;;23.55;;
26157;SDS011;67284;44.782;10.282;2023-12-04T17:45:00;29.65;;;18.45;;
26157;SDS011;67284;44.782;10.282;2023-12-04T17:49:53;29.35;;;18.98;;
26157;SDS011;67284;44.782;10.282;2023-12-04T17:54:45;32.95;;;20.05;;
26157;SDS011;67284;44.782;10.282;2023-12-04T17:59:38;32.83;;;20.42;;
26157;SDS011;67284;44.782;10.282;2023-12-04T18:04:30;36.65;;;21.67;;
26157;SDS011;67284;44.782;10.282;2023-12-04T18:09:22;27.73;;;17.77;;
26157;SDS011;67284;44.782;10.282;2023-12-04T18:14:14;25.95;;;17.02;;
26157;SDS011;67284;44.782;10.282;2023-12-04T18:19:06;23.75;;;16.73;;
26157;SDS011;67284;44.782;10.282;2023-12-04T18:23:58;25.30;;;15.18;;
26157;SDS011;67284;44.782;10.282;2023-12-04T18:28:51;26.30;;;15.35;;
26157;SDS011;67284;44.782;10.282;2023-12-04T18:33:45;29.50;;;17.50;;
26157;SDS011;67284;44.782;10.282;2023-12-04T18:43:46;27.95;;;17.05;;
26157;SDS011;67284;44.782;10.282;2023-12-04T18:48:44;41.45;;;20.20;;
26157;SDS011;67284;44.782;10.282;2023-12-04T18:53:37;30.08;;;18.50;;
26157;SDS011;67284;44.782;10.282;2023-12-04T18:58:29;29.30;;;18.02;;
26157;SDS011;67284;44.782;10.282;2023-12-04T19:03:21;34.20;;;18.20;;
26157;SDS011;67284;44.782;10.282;2023-12-04T19:08:14;32.97;;;18.92;;
26157;SDS011;67284;44.782;10.282;2023-12-04T19:13:06;32.67;;;17.70;;
26157;SDS011;67284;44.782;10.282;2023-12-04T19:18:00;30.45;;;18.02;;
26157;SDS011;67284;44.782;10.282;2023-12-04T19:22:52;31.42;;;17.88;;
26157;SDS011;67284;44.782;10.282;2023-12-04T19:27:44;33.08;;;19.58;;
26157;SDS011;67284;44.782;10.282;2023-12-04T19:32:36;32.30;;;19.15;;
26157;SDS011;67284;44.782;10.282;2023-12-04T19:37:28;33.70;;;20.13;;
26157;SDS011;67284;44.782;10.282;2023-12-04T19:42:20;25.35;;;16.13;;
26157;SDS011;67284;44.782;10.282;2023-12-04T19:47:12;64.28;;;34.75;;
26157;SDS011;67284;44.782;10.282;2023-12-04T19:52:04;38.90;;;23.13;;
26157;SDS011;67284;44.782;10.282;2023-12-04T19:56:56;35.90;;;21.45;;
26157;SDS011;67284;44.782;10.282;2023-12-04T20:01:48;38.38;;;20.52;;
26157;SDS011;67284;44.782;10.282;2023-12-04T20:06:40;36.22;;;20.05;;
26157;SDS011;67284;44.782;10.282;2023-12-04T20:11:32;33.92;;;18.48;;
26157;SDS011;67284;44.782;10.282;2023-12-04T20:16:23;41.80;;;24.40;;
26157;SDS011;67284;44.782;10.282;2023-12-04T20:21:15;38.80;;;25.35;;
26157;SDS011;67284;44.782;10.282;2023-12-04T20:26:07;35.78;;;20.30;;
26157;SDS011;67284;44.782;10.282;2023-12-04T20:30:59;46.58;;;27.23;;
26157;SDS011;67284;44.782;10.282;2023-12-04T20:35:51;35.47;;;21.70;;
26157;SDS011;67284;44.782;10.282;2023-12-04T20:40:44;31.58;;;20.65;;
26157;SDS011;67284;44.782;10.282;2023-12-04T20:45:37;32.78;;;19.15;;
26157;SDS011;67284;44.782;10.282;2023-12-04T20:50:30;30.88;;;19.75;;
26157;SDS011;67284;44.782;10.282;2023-12-04T20:55:22;29.45;;;17.77;;
26157;SDS011;67284;44.782;10.282;2023-12-04T21:00:15;30.20;;;18.40;;
26157;SDS011;67284;44.782;10.282;2023-12-04T21:05:07;31.10;;;19.08;;
26157;SDS011;67284;44.782;10.282;2023-12-04T21:10:00;31.25;;;19.30;;
26157;SDS011;67284;44.782;10.282;2023-12-04T21:14:52;29.30;;;17.95;;
26157;SDS011;67284;44.782;10.282;2023-12-04T21:19:45;30.05;;;18.35;;
26157;SDS011;67284;44.782;10.282;2023-12-04T21:24:37;31.08;;;18.40;;
26157;SDS011;67284;44.782;10.282;2023-12-04T21:29:29;28.92;;;17.88;;
26157;SDS011;67284;44.782;10.282;2023-12-04T21:34:21;32.83;;;19.30;;
26157;SDS011;67284;44.782;10.282;2023-12-04T21:39:13;29.38;;;18.35;;
26157;SDS011;67284;44.782;10.282;2023-12-04T21:44:05;37.33;;;20.38;;
26157;SDS011;67284;44.782;10.282;2023-12-04T21:48:57;31.38;;;19.58;;
26157;SDS011;67284;44.782;10.282;2023-12-04T21:53:51;30.92;;;19.08;;
26157;SDS011;67284;44.782;10.282;2023-12-04T21:58:43;33.20;;;19.80;;
26157;SDS011;67284;44.782;10.282;2023-12-04T22:03:53;33.70;;;19.45;;
26157;SDS011;67284;44.782;10.282;2023-12-04T22:08:46;31.33;;;18.90;;
26157;SDS011;67284;44.782;10.282;2023-12-04T22:13:37;29.05;;;18.40;;
26157;SDS011;67284;44.782;10.282;2023-12-04T22:18:29;30.67;;;18.75;;
26157;SDS011;67284;44.782;10.282;2023-12-04T22:23:24;30.92;;;18.10;;
26157;SDS011;67284;44.782;10.282;2023-12-04T22:28:15;33.05;;;20.75;;
26157;SDS011;67284;44.782;10.282;2023-12-04T22:33:07;28.27;;;18.85;;
26157;SDS011;67284;44.782;10.282;2023-12-04T22:37:59;28.35;;;19.02;;
26157;SDS011;67284;44.782;10.282;2023-12-04T22:42:52;32.38;;;20.95;;
26157;SDS011;67284;44.782;10.282;2023-12-04T22:47:44;28.10;;;17.05;;
26157;SDS011;67284;44.782;10.282;2023-12-04T22:52:36;28.42;;;17.35;;
26157;SDS011;67284;44.782;10.282;2023-12-04T22:57:28;25.00;;;16.77;;
26157;SDS011;67284;44.782;10.282;2023-12-04T23:02:20;26.08;;;16.33;;
26157;SDS011;67284;44.782;10.282;2023-12-04T23:07:12;28.88;;;18.30;;
26157;SDS011;67284;44.782;10.282;2023-12-04T23:12:04;28.77;;;17.40;;
26157;SDS011;67284;44.782;10.282;2023-12-04T23:16:57;31.92;;;19.40;;
26157;SDS011;67284;44.782;10.282;2023-12-04T23:21:50;28.52;;;17.48;;
26157;SDS011;67284;44.782;10.282;2023-12-04T23:26:42;26.02;;;17.30;;
26157;SDS011;67284;44.782;10.282;2023-12-04T23:31:35;28.25;;;18.30;;
26157;SDS011;67284;44.782;10.282;2023-12-04T23:36:27;28.98;;;18.48;;
26157;SDS011;67284;44.782;10.282;2023-12-04T23:41:19;28.27;;;17.88;;
26157;SDS011;67284;44.782;10.282;2023-12-04T23:46:11;29.05;;;17.95;;
26157;SDS011;67284;44.782;10.282;2023-12-04T23:51:03;26.45;;;17.55;;
26157;SDS011;67284;44.782;10.282;2023-12-04T23:55:56;28.02;;;18.38;;
